createdAt,value
2019-03-19T00:00:39.018Z,3.63
2019-03-19T00:03:06.914Z,3.80
2019-03-19T00:05:34.794Z,3.93
2019-03-19T00:08:02.718Z,4.03
2019-03-19T00:10:30.685Z,3.97
2019-03-19T00:12:58.812Z,3.20
2019-03-19T00:15:27.620Z,3.80
2019-03-19T00:17:55.596Z,3.27
2019-03-19T00:20:23.523Z,3.67
2019-03-19T00:22:51.433Z,3.33
2019-03-19T00:25:29.498Z,3.40
2019-03-19T00:27:49.198Z,3.27
2019-03-19T00:30:19.638Z,3.47
2019-03-19T00:32:47.766Z,3.83
2019-03-19T00:35:15.759Z,2.77
2019-03-19T00:37:43.847Z,3.07
2019-03-19T00:40:11.895Z,3.07
2019-03-19T00:42:39.960Z,3.47
2019-03-19T00:45:08.221Z,2.77
2019-03-19T00:47:36.378Z,3.40
2019-03-19T00:50:05.082Z,4.03
2019-03-19T00:52:33.198Z,3.93
2019-03-19T00:55:01.230Z,3.43
2019-03-19T00:57:29.341Z,3.83
2019-03-19T00:59:57.406Z,3.70
2019-03-19T01:02:25.796Z,2.60
2019-03-19T01:04:54.336Z,2.97
2019-03-19T01:07:22.346Z,3.00
2019-03-19T01:09:50.402Z,3.00
2019-03-19T01:12:18.431Z,2.67
2019-03-19T01:14:46.537Z,3.40
2019-03-19T01:17:14.595Z,2.90
2019-03-19T01:19:42.635Z,4.23
2019-03-19T01:22:10.718Z,3.33
2019-03-19T01:24:38.795Z,3.50
2019-03-19T01:27:06.859Z,3.07
2019-03-19T01:29:34.927Z,3.00
2019-03-19T01:32:03.011Z,2.93
2019-03-19T01:34:31.297Z,4.00
2019-03-19T01:36:59.317Z,2.90
2019-03-19T01:39:27.371Z,3.50
2019-03-19T01:41:55.444Z,3.03
2019-03-19T01:44:35.812Z,2.90
2019-03-19T01:47:04.000Z,2.63
2019-03-19T01:49:32.117Z,4.17
2019-03-19T01:52:00.207Z,3.17
2019-03-19T01:54:28.282Z,3.57
2019-03-19T01:56:56.358Z,4.57
2019-03-19T01:59:24.426Z,2.87
2019-03-19T02:01:52.465Z,3.00
2019-03-19T02:04:20.582Z,3.80
2019-03-19T02:06:48.646Z,3.87
2019-03-19T02:09:16.692Z,3.93
2019-03-19T02:11:44.868Z,2.60
2019-03-19T02:14:13.010Z,3.07
2019-03-19T02:16:41.074Z,3.73
2019-03-19T02:19:09.225Z,3.13
2019-03-19T02:21:37.299Z,3.03
2019-03-19T02:24:05.484Z,3.47
2019-03-19T02:26:33.534Z,3.43
2019-03-19T02:29:01.612Z,3.40
2019-03-19T02:31:32.518Z,3.00
2019-03-19T02:34:05.860Z,3.27
2019-03-19T02:39:21.525Z,3.33
2019-03-19T02:41:49.622Z,3.53
2019-03-19T02:44:17.634Z,2.97
2019-03-19T02:46:45.659Z,3.27
2019-03-19T02:49:13.735Z,3.20
2019-03-19T02:51:41.767Z,2.87
2019-03-19T02:54:09.857Z,3.27
2019-03-19T02:56:37.940Z,4.60
2019-03-19T02:59:06.020Z,2.77
2019-03-19T03:01:34.106Z,3.33
2019-03-19T03:04:02.149Z,2.73
2019-03-19T03:06:31.384Z,2.80
2019-03-19T03:08:59.419Z,2.47
2019-03-19T03:11:27.507Z,2.53
2019-03-19T03:13:55.621Z,3.07
2019-03-19T03:16:23.677Z,2.90
2019-03-19T03:18:52.076Z,3.77
2019-03-19T03:21:20.134Z,2.43
2019-03-19T03:23:48.826Z,4.33
2019-03-19T03:26:16.898Z,3.10
2019-03-19T03:28:44.882Z,2.60
2019-03-19T03:31:12.919Z,3.70
2019-03-19T03:33:40.961Z,3.20
2019-03-19T03:36:09.003Z,3.67
2019-03-19T03:38:37.197Z,3.30
2019-03-19T03:41:05.487Z,3.07
2019-03-19T03:43:33.595Z,2.80
2019-03-19T03:46:01.672Z,2.90
2019-03-19T03:48:29.834Z,3.40
2019-03-19T03:50:57.906Z,3.47
2019-03-19T03:53:26.045Z,3.00
2019-03-19T03:55:55.349Z,3.40
2019-03-19T03:58:23.531Z,3.00
2019-03-19T04:00:54.233Z,3.37
2019-03-19T04:03:22.379Z,3.03
2019-03-19T04:05:50.812Z,2.80
2019-03-19T04:08:18.840Z,2.63
2019-03-19T04:10:46.953Z,3.13
2019-03-19T04:13:16.119Z,3.60
2019-03-19T04:15:44.227Z,2.80
2019-03-19T04:18:12.309Z,3.53
2019-03-19T04:20:41.637Z,2.80
2019-03-19T04:23:12.166Z,3.47
2019-03-19T04:25:40.550Z,3.23
2019-03-19T04:28:08.654Z,3.00
2019-03-19T04:30:36.746Z,3.20
2019-03-19T04:33:04.911Z,3.00
2019-03-19T04:35:35.866Z,3.37
2019-03-19T04:38:03.940Z,2.97
2019-03-19T04:40:32.020Z,2.87
2019-03-19T04:43:01.203Z,3.17
2019-03-19T04:45:29.271Z,3.70
2019-03-19T04:47:57.356Z,3.33
2019-03-19T04:50:25.446Z,2.77
2019-03-19T04:52:53.562Z,3.13
2019-03-19T04:55:21.651Z,3.73
2019-03-19T04:57:49.717Z,3.07
2019-03-19T05:00:17.771Z,2.63
2019-03-19T05:02:45.821Z,2.90
2019-03-19T05:05:15.343Z,2.80
2019-03-19T05:07:43.397Z,3.67
2019-03-19T05:10:11.890Z,2.63
2019-03-19T05:12:42.030Z,4.43
2019-03-19T05:15:10.259Z,2.60
2019-03-19T05:20:47.728Z,3.13
2019-03-19T05:23:15.767Z,2.90
2019-03-19T05:25:43.826Z,2.97
2019-03-19T05:28:11.894Z,2.97
2019-03-19T05:30:40.331Z,2.80
2019-03-19T05:33:09.615Z,3.27
2019-03-19T05:35:37.749Z,2.40
2019-03-19T05:38:05.877Z,2.87
2019-03-19T05:40:33.965Z,2.93
2019-03-19T05:43:01.983Z,3.37
2019-03-19T05:45:30.061Z,2.80
2019-03-19T05:47:58.043Z,3.93
2019-03-19T05:50:26.091Z,2.43
2019-03-19T05:52:54.165Z,3.30
2019-03-19T05:55:22.192Z,3.30
2019-03-19T05:57:50.714Z,3.10
2019-03-19T06:00:19.836Z,3.37
2019-03-19T06:02:47.863Z,3.50
2019-03-19T06:05:15.951Z,3.57
2019-03-19T06:07:43.992Z,3.03
2019-03-19T06:10:12.133Z,3.70
2019-03-19T06:12:40.227Z,3.30
2019-03-19T06:15:08.319Z,2.87
2019-03-19T06:17:36.375Z,3.53
2019-03-19T06:20:05.302Z,3.70
2019-03-19T06:22:33.319Z,3.50
2019-03-19T06:25:01.403Z,3.97
2019-03-19T06:27:29.472Z,3.37
2019-03-19T06:29:57.507Z,2.80
2019-03-19T06:32:25.677Z,3.00
2019-03-19T06:34:53.691Z,3.07
2019-03-19T06:37:36.206Z,3.43
2019-03-19T06:40:04.843Z,2.97
2019-03-19T06:42:32.981Z,3.10
2019-03-19T06:45:01.034Z,3.70
2019-03-19T06:47:29.116Z,2.93
2019-03-19T06:49:57.189Z,3.77
2019-03-19T06:52:25.433Z,2.90
2019-03-19T06:54:54.807Z,3.17
2019-03-19T06:57:22.970Z,3.80
2019-03-19T06:59:54.173Z,2.87
2019-03-19T07:02:38.268Z,2.67
2019-03-19T07:05:08.520Z,2.63
2019-03-19T07:07:36.708Z,3.40
2019-03-19T07:10:05.627Z,3.10
2019-03-19T07:12:35.749Z,4.10
2019-03-19T07:15:07.345Z,2.47
2019-03-19T07:17:35.332Z,3.43
2019-03-19T07:20:03.662Z,2.90
2019-03-19T07:22:31.703Z,3.17
2019-03-19T07:24:59.760Z,3.50
2019-03-19T07:27:27.849Z,2.83
2019-03-19T07:29:55.933Z,3.67
2019-03-19T07:32:30.254Z,2.90
2019-03-19T07:35:01.297Z,3.60
2019-03-19T07:37:29.552Z,2.20
2019-03-19T07:39:58.029Z,2.83
2019-03-19T07:42:43.061Z,2.90
2019-03-19T07:45:14.590Z,2.80
2019-03-19T07:47:42.729Z,3.07
2019-03-19T07:50:12.953Z,3.30
2019-03-19T07:52:41.041Z,3.33
2019-03-19T07:55:13.981Z,3.60
2019-03-19T07:57:42.050Z,3.13
2019-03-19T08:00:11.271Z,3.23
2019-03-19T08:02:45.667Z,2.97
2019-03-19T08:05:16.332Z,2.87
2019-03-19T08:07:46.345Z,3.37
2019-03-19T08:10:15.920Z,2.80
2019-03-19T08:12:50.411Z,3.47
2019-03-19T08:15:18.470Z,3.33
2019-03-19T08:21:46.654Z,2.83
2019-03-19T08:24:33.544Z,2.97
2019-03-19T08:27:10.438Z,3.17
2019-03-19T08:29:52.330Z,3.60
2019-03-19T08:32:21.890Z,3.30
2019-03-19T08:37:59.577Z,3.27
2019-03-19T08:40:28.490Z,3.20
2019-03-19T08:42:58.317Z,3.00
2019-03-19T08:45:33.729Z,3.27
2019-03-19T08:48:30.218Z,3.63
2019-03-19T08:51:00.707Z,3.00
2019-03-19T08:53:33.553Z,3.70
2019-03-19T08:56:02.950Z,2.80
2019-03-19T08:58:39.846Z,3.00
2019-03-19T09:01:08.109Z,2.90
2019-03-19T09:10:07.765Z,3.23
2019-03-19T09:15:48.288Z,2.83
2019-03-19T09:18:19.600Z,2.37
2019-03-19T09:20:49.826Z,2.80
2019-03-19T09:23:21.094Z,2.57
2019-03-19T09:25:56.428Z,2.63
2019-03-19T09:28:24.522Z,2.30
2019-03-19T09:30:52.656Z,2.60
2019-03-19T09:33:20.727Z,2.90
2019-03-19T09:35:51.280Z,2.70
2019-03-19T09:38:22.413Z,2.43
2019-03-19T09:40:58.100Z,3.37
2019-03-19T09:43:27.184Z,2.67
2019-03-19T09:45:55.203Z,2.17
2019-03-19T09:48:28.313Z,2.43
2019-03-19T09:50:59.988Z,2.17
2019-03-19T09:53:45.906Z,2.10
2019-03-19T09:56:21.029Z,2.60
2019-03-19T09:58:50.854Z,2.10
2019-03-19T10:01:20.628Z,2.10
2019-03-19T10:03:51.503Z,1.70
2019-03-19T10:06:37.475Z,1.90
2019-03-19T10:47:24.633Z,2.37
2019-03-19T10:55:51.768Z,1.93
2019-03-19T10:59:57.504Z,2.47
2019-03-19T11:01:45.262Z,2.57
2019-03-19T11:07:37.184Z,2.40
2019-03-19T11:13:53.943Z,2.33
2019-03-19T11:16:23.868Z,2.03
2019-03-19T11:19:29.644Z,3.47
2019-03-19T11:22:52.329Z,4.17
2019-03-19T11:25:39.004Z,3.73
2019-03-19T11:28:34.327Z,2.60
2019-03-19T11:32:08.576Z,3.50
2019-03-19T11:34:26.295Z,3.20
2019-03-19T11:36:58.061Z,2.87
2019-03-19T11:39:24.978Z,3.23
2019-03-19T11:41:54.400Z,2.50
2019-03-19T11:44:24.106Z,2.00
2019-03-19T11:47:15.360Z,2.97
2019-03-19T11:49:48.021Z,1.80
2019-03-19T11:55:36.684Z,2.97
2019-03-19T11:58:38.286Z,2.77
2019-03-19T12:01:48.128Z,3.23
2019-03-19T12:15:53.691Z,1.93
2019-03-19T12:18:54.782Z,3.03
2019-03-19T12:21:00.107Z,2.30
2019-03-19T12:24:16.340Z,2.50
2019-03-19T12:27:15.656Z,2.57
2019-03-19T12:42:50.603Z,2.90
2019-03-19T12:52:56.187Z,3.67
2019-03-19T13:26:34.411Z,2.30
2019-03-19T13:53:34.731Z,2.30
2019-03-19T14:21:21.594Z,1.77
2019-03-19T14:37:31.088Z,1.87
2019-03-19T14:50:29.105Z,1.30
2019-03-19T15:09:46.747Z,1.10
2019-03-19T15:13:00.815Z,1.70
2019-03-19T15:15:51.718Z,1.37
2019-03-19T15:18:46.675Z,1.50
2019-03-19T15:22:04.418Z,1.83
2019-03-19T16:41:57.261Z,1.40
2019-03-19T16:44:36.711Z,1.90
2019-03-19T16:50:39.069Z,1.63
2019-03-19T16:53:10.123Z,2.27
2019-03-19T16:55:45.666Z,1.87
2019-03-19T16:58:19.085Z,2.07
2019-03-19T17:00:49.700Z,2.40
2019-03-19T17:03:26.144Z,2.57
2019-03-19T17:06:40.906Z,2.03
2019-03-19T17:09:35.326Z,2.07
2019-03-19T17:12:04.163Z,2.27
2019-03-19T17:14:38.522Z,1.83
2019-03-19T17:17:09.690Z,2.50
2019-03-19T17:19:42.067Z,2.60
2019-03-19T17:22:12.622Z,2.37
2019-03-19T17:24:41.687Z,3.20
2019-03-19T17:27:10.656Z,2.87
2019-03-19T17:29:42.605Z,2.50
2019-03-19T17:32:13.256Z,2.27
2019-03-19T17:34:48.835Z,2.00
2019-03-19T17:37:17.216Z,2.60
2019-03-19T17:39:45.446Z,3.13
2019-03-19T17:42:13.510Z,1.83
2019-03-19T17:44:41.659Z,2.53
2019-03-19T17:47:09.736Z,2.67
2019-03-19T17:49:37.839Z,3.47
2019-03-19T17:52:06.009Z,3.60
2019-03-19T17:54:34.082Z,4.70
2019-03-19T17:57:02.479Z,4.80
2019-03-19T17:59:30.622Z,3.87
2019-03-19T18:01:58.741Z,5.63
2019-03-19T18:04:27.099Z,5.37
2019-03-19T18:06:55.740Z,4.73
2019-03-19T18:09:24.394Z,3.57
2019-03-19T18:11:53.041Z,3.57
2019-03-19T18:14:21.606Z,3.07
2019-03-19T18:16:53.411Z,2.80
2019-03-19T18:19:22.218Z,3.80
2019-03-19T18:21:50.855Z,4.67
2019-03-19T18:24:20.200Z,3.40
2019-03-19T18:26:50.915Z,4.00
2019-03-19T18:29:19.012Z,4.17
2019-03-19T18:31:57.559Z,5.30
2019-03-19T18:34:25.802Z,3.10
2019-03-19T18:36:55.053Z,2.73
2019-03-19T18:39:23.536Z,4.27
2019-03-19T18:41:51.533Z,3.63
2019-03-19T18:44:19.838Z,2.73
2019-03-19T18:46:48.246Z,3.77
2019-03-19T18:49:16.481Z,3.07
2019-03-19T18:51:44.561Z,3.20
2019-03-19T18:54:12.669Z,4.37
2019-03-19T18:56:40.750Z,3.77
2019-03-19T18:59:08.899Z,3.90
2019-03-19T19:01:37.104Z,3.13
2019-03-19T19:04:05.609Z,3.57
2019-03-19T19:06:33.606Z,2.27
2019-03-19T19:09:02.827Z,2.53
2019-03-19T19:11:30.966Z,2.57
2019-03-19T19:13:59.101Z,2.70
2019-03-19T19:16:27.270Z,3.90
2019-03-19T19:18:55.523Z,2.43
2019-03-19T19:21:23.651Z,2.60
2019-03-19T19:23:51.800Z,3.70
2019-03-19T19:26:20.058Z,3.50
2019-03-19T19:28:48.652Z,7.50
2019-03-19T19:31:16.813Z,3.93
2019-03-19T19:33:44.862Z,4.00
2019-03-19T19:36:12.922Z,4.67
2019-03-19T19:38:41.207Z,5.50
2019-03-19T19:41:09.410Z,6.00
2019-03-19T19:43:37.922Z,5.47
2019-03-19T19:46:06.308Z,4.80
2019-03-19T19:48:34.418Z,5.00
2019-03-19T19:51:02.563Z,4.87
2019-03-19T19:53:30.786Z,5.67
2019-03-19T19:55:59.027Z,4.27
2019-03-19T19:58:27.152Z,5.83
2019-03-19T20:00:56.168Z,4.83
2019-03-19T20:03:24.405Z,4.00
2019-03-19T20:05:52.674Z,3.57
2019-03-19T20:08:21.527Z,3.87
2019-03-19T20:10:49.596Z,3.00
2019-03-19T20:16:28.975Z,4.67
2019-03-19T20:18:57.218Z,4.90
2019-03-19T20:21:26.003Z,4.53
2019-03-19T20:23:54.494Z,4.40
2019-03-19T20:26:22.915Z,3.70
2019-03-19T20:28:51.349Z,3.83
2019-03-19T20:31:19.557Z,4.53
2019-03-19T20:36:34.622Z,3.63
2019-03-19T20:39:02.867Z,3.10
2019-03-19T20:41:31.026Z,3.50
2019-03-19T20:43:59.491Z,3.70
2019-03-19T20:46:27.697Z,4.40
2019-03-19T20:48:55.978Z,3.83
2019-03-19T20:51:24.437Z,3.57
2019-03-19T20:53:52.803Z,3.87
2019-03-19T20:56:21.078Z,2.87
2019-03-19T20:59:16.372Z,3.53
2019-03-19T21:01:48.735Z,3.63
2019-03-19T21:04:30.589Z,3.03
2019-03-19T21:06:57.456Z,4.00
2019-03-19T21:09:29.519Z,2.80
2019-03-19T21:12:03.917Z,3.27
2019-03-19T21:14:47.147Z,3.47
2019-03-19T21:17:24.789Z,3.20
2019-03-19T21:20:07.719Z,3.17
2019-03-19T21:22:50.746Z,3.20
2019-03-19T21:28:29.393Z,3.43
2019-03-19T21:31:02.372Z,3.93
2019-03-19T21:33:50.821Z,4.27
2019-03-19T21:36:17.755Z,3.20
2019-03-19T21:38:47.367Z,3.20
2019-03-19T21:41:22.100Z,3.30
2019-03-19T21:44:00.572Z,3.37
2019-03-19T21:46:41.073Z,3.17
2019-03-19T21:49:20.432Z,3.57
2019-03-19T21:51:50.334Z,3.13
2019-03-19T21:54:18.698Z,2.97
2019-03-19T22:00:15.938Z,2.83
2019-03-19T22:02:53.278Z,3.97
2019-03-19T22:05:26.359Z,4.50
2019-03-19T22:07:58.525Z,3.77
2019-03-19T22:10:27.946Z,6.90
2019-03-19T22:13:14.289Z,12.23
2019-03-19T22:15:53.458Z,6.10
2019-03-19T22:18:23.109Z,5.20
2019-03-19T22:21:00.341Z,4.70
2019-03-19T22:23:31.354Z,5.10
2019-03-19T22:28:58.709Z,6.73
2019-03-19T22:31:27.696Z,11.50
2019-03-19T22:33:56.788Z,5.57
2019-03-19T22:36:26.022Z,7.53
2019-03-19T22:38:54.336Z,7.20
2019-03-19T22:41:29.003Z,7.83
2019-03-19T22:44:03.239Z,10.10
2019-03-19T22:46:33.706Z,6.97
2019-03-19T22:49:31.227Z,7.27
2019-03-19T22:52:08.087Z,4.90
2019-03-19T22:54:41.808Z,4.60
2019-03-19T22:57:15.801Z,4.37
2019-03-19T22:59:55.118Z,3.83
2019-03-19T23:02:23.718Z,4.23
2019-03-19T23:04:52.087Z,3.93
2019-03-19T23:07:22.142Z,3.97
2019-03-19T23:09:50.915Z,4.70
2019-03-19T23:12:23.606Z,5.53
2019-03-19T23:14:51.862Z,5.63
2019-03-19T23:17:21.773Z,5.83
2019-03-19T23:19:51.679Z,4.80
2019-03-19T23:22:21.324Z,4.77
2019-03-19T23:24:49.598Z,12.87
2019-03-19T23:27:18.847Z,14.53
2019-03-19T23:29:52.893Z,12.47
2019-03-19T23:32:21.438Z,8.27
2019-03-19T23:34:50.515Z,6.37
2019-03-19T23:37:18.810Z,7.80
2019-03-19T23:39:49.287Z,6.43
2019-03-19T23:42:17.531Z,5.30
2019-03-19T23:44:48.326Z,5.97
2019-03-19T23:47:19.295Z,6.10
2019-03-19T23:49:47.545Z,4.60
2019-03-19T23:52:17.055Z,6.37
2019-03-19T23:54:47.166Z,6.23
2019-03-19T23:57:19.095Z,6.47
2019-03-19T23:59:47.501Z,5.73
